CFLRP CYBW-CYXH
Flight info
| Callsign | CFLRP |
|---|---|
| Flight time | 0h 43m |
| Altitude | 17000 |
| Route | NOSIV T773 ODLAN ODLAN1 |
| Aircraft | BE9L/L-SBDFGRY/SB1 |
Departure
| Time | 2026-05-06 00:33 |
|---|---|
| Airport | Calgary / Springbank Airport (CYBW) |
Arrival
| Time | 2026-05-06 01:17 |
|---|---|
| Airport | Medicine Hat Regional Airport (CYXH) |
| Time | Latitude | Longitude | Altitude | Speed | Heading |
|---|---|---|---|---|---|
| 2026-05-06 00:17 | 51.10319 | -114.37299 | 3932 ft | 0 kts | 270° |
| 2026-05-06 00:27 | 51.10319 | -114.37301 | 3932 ft | 1 kts | 279° |
| 2026-05-06 00:27 | 51.10323 | -114.37306 | 3938 ft | 0 kts | 346° |
| 2026-05-06 00:28 | 51.10332 | -114.37310 | 3932 ft | 2 kts | 332° |
| 2026-05-06 00:28 | 51.10344 | -114.37361 | 3928 ft | 7 kts | 268° |
| 2026-05-06 00:29 | 51.10343 | -114.37428 | 3970 ft | 5 kts | 269° |
| 2026-05-06 00:29 | 51.10342 | -114.37544 | 3978 ft | 10 kts | 266° |
| 2026-05-06 00:29 | 51.10280 | -114.37601 | 3939 ft | 13 kts | 178° |
| 2026-05-06 00:29 | 51.10133 | -114.37606 | 3939 ft | 17 kts | 178° |
| 2026-05-06 00:30 | 51.10034 | -114.37602 | 3939 ft | 22 kts | 178° |
| 2026-05-06 00:30 | 51.09919 | -114.37601 | 3939 ft | 17 kts | 176° |
| 2026-05-06 00:30 | 51.09860 | -114.37624 | 3939 ft | 7 kts | 230° |
| 2026-05-06 00:30 | 51.09853 | -114.37681 | 3939 ft | 4 kts | 269° |
| 2026-05-06 00:31 | 51.09854 | -114.37714 | 3939 ft | 0 kts | 269° |
| 2026-05-06 00:31 | 51.09853 | -114.37745 | 3939 ft | 10 kts | 269° |
| 2026-05-06 00:31 | 51.09854 | -114.37867 | 3938 ft | 2 kts | 303° |
| 2026-05-06 00:32 | 51.09865 | -114.37874 | 3938 ft | 0 kts | 355° |
| 2026-05-06 00:32 | 51.09867 | -114.37874 | 3938 ft | 0 kts | 1° |
| 2026-05-06 00:32 | 51.09870 | -114.37874 | 3938 ft | 5 kts | 0° |
| 2026-05-06 00:32 | 51.10098 | -114.37876 | 3939 ft | 64 kts | 358° |
| 2026-05-06 00:33 | 51.10735 | -114.37871 | 3940 ft | 116 kts | 358° |
| 2026-05-06 00:33 | 51.11637 | -114.37890 | 4162 ft | 134 kts | 2° |
| 2026-05-06 00:33 | 51.12574 | -114.37914 | 4688 ft | 145 kts | 359° |
| 2026-05-06 00:33 | 51.13598 | -114.38001 | 5374 ft | 141 kts | 359° |
| 2026-05-06 00:34 | 51.14625 | -114.38110 | 5781 ft | 160 kts | 358° |
| 2026-05-06 00:34 | 51.15760 | -114.38212 | 6306 ft | 164 kts | 359° |
| 2026-05-06 00:34 | 51.16882 | -114.37982 | 6814 ft | 164 kts | 25° |
| 2026-05-06 00:34 | 51.17775 | -114.36864 | 7368 ft | 167 kts | 49° |
| 2026-05-06 00:35 | 51.18298 | -114.35190 | 7908 ft | 173 kts | 73° |
| 2026-05-06 00:35 | 51.18298 | -114.33255 | 8421 ft | 184 kts | 101° |
| 2026-05-06 00:35 | 51.17821 | -114.31328 | 8938 ft | 189 kts | 109° |
| 2026-05-06 00:35 | 51.17296 | -114.29377 | 9467 ft | 193 kts | 109° |
| 2026-05-06 00:36 | 51.16769 | -114.27380 | 9943 ft | 197 kts | 108° |
| 2026-05-06 00:36 | 51.16232 | -114.25327 | 10262 ft | 202 kts | 108° |
| 2026-05-06 00:36 | 51.15689 | -114.23247 | 10633 ft | 204 kts | 107° |
| 2026-05-06 00:36 | 51.15149 | -114.21181 | 10997 ft | 205 kts | 107° |
| 2026-05-06 00:37 | 51.14598 | -114.19077 | 11379 ft | 206 kts | 106° |
| 2026-05-06 00:37 | 51.14043 | -114.16960 | 11757 ft | 208 kts | 106° |
| 2026-05-06 00:37 | 51.13483 | -114.14822 | 12127 ft | 210 kts | 106° |
| 2026-05-06 00:37 | 51.12919 | -114.12672 | 12521 ft | 211 kts | 105° |
| 2026-05-06 00:38 | 51.12350 | -114.10509 | 12926 ft | 212 kts | 105° |
| 2026-05-06 00:38 | 51.11779 | -114.08333 | 13326 ft | 214 kts | 104° |
| 2026-05-06 00:38 | 51.11203 | -114.06145 | 13710 ft | 215 kts | 104° |
| 2026-05-06 00:38 | 51.10622 | -114.03939 | 14067 ft | 217 kts | 103° |
| 2026-05-06 00:39 | 51.10044 | -114.01750 | 14398 ft | 217 kts | 103° |
| 2026-05-06 00:39 | 51.09457 | -113.99528 | 14730 ft | 218 kts | 102° |
| 2026-05-06 00:39 | 51.08866 | -113.97291 | 15053 ft | 219 kts | 101° |
| 2026-05-06 00:39 | 51.08273 | -113.95047 | 15373 ft | 220 kts | 101° |
| 2026-05-06 00:40 | 51.07677 | -113.92799 | 15689 ft | 221 kts | 100° |
| 2026-05-06 00:40 | 51.07077 | -113.90538 | 16007 ft | 221 kts | 99° |
| 2026-05-06 00:40 | 51.06484 | -113.88299 | 16310 ft | 222 kts | 99° |
| 2026-05-06 00:40 | 51.05882 | -113.86031 | 16616 ft | 223 kts | 98° |
| 2026-05-06 00:41 | 51.05276 | -113.83752 | 16898 ft | 225 kts | 98° |
| 2026-05-06 00:41 | 51.04658 | -113.81400 | 16991 ft | 235 kts | 98° |
| 2026-05-06 00:41 | 51.04008 | -113.78956 | 17031 ft | 244 kts | 99° |
| 2026-05-06 00:41 | 51.03333 | -113.76438 | 17045 ft | 251 kts | 99° |
| 2026-05-06 00:42 | 51.02651 | -113.73890 | 17045 ft | 254 kts | 98° |
| 2026-05-06 00:42 | 51.02327 | -113.71268 | 17052 ft | 237 kts | 79° |
| 2026-05-06 00:42 | 51.02179 | -113.68638 | 17059 ft | 243 kts | 83° |
| 2026-05-06 00:42 | 51.01813 | -113.65953 | 17061 ft | 256 kts | 95° |
| 2026-05-06 00:43 | 51.01073 | -113.63310 | 17068 ft | 267 kts | 105° |
| 2026-05-06 00:43 | 51.00182 | -113.60709 | 17076 ft | 268 kts | 105° |
| 2026-05-06 00:43 | 50.99350 | -113.58072 | 17082 ft | 266 kts | 103° |
| 2026-05-06 00:43 | 50.98566 | -113.55402 | 17088 ft | 266 kts | 102° |
| 2026-05-06 00:44 | 50.97773 | -113.52741 | 17090 ft | 267 kts | 103° |
| 2026-05-06 00:44 | 50.96995 | -113.50111 | 17097 ft | 266 kts | 102° |
| 2026-05-06 00:44 | 50.96220 | -113.47444 | 17099 ft | 267 kts | 103° |
| 2026-05-06 00:44 | 50.95748 | -113.44765 | 17100 ft | 235 kts | 72° |
| 2026-05-06 00:45 | 50.96150 | -113.42420 | 17087 ft | 224 kts | 66° |
| 2026-05-06 00:45 | 50.95928 | -113.39794 | 17098 ft | 257 kts | 97° |
| 2026-05-06 00:45 | 50.95213 | -113.37150 | 17098 ft | 264 kts | 102° |
| 2026-05-06 00:45 | 50.94395 | -113.34533 | 17093 ft | 267 kts | 107° |
| 2026-05-06 00:46 | 50.93449 | -113.31986 | 17097 ft | 267 kts | 110° |
| 2026-05-06 00:46 | 50.92410 | -113.29529 | 17096 ft | 268 kts | 114° |
| 2026-05-06 00:46 | 50.91332 | -113.27122 | 17094 ft | 267 kts | 113° |
| 2026-05-06 00:46 | 50.90281 | -113.24707 | 17092 ft | 265 kts | 112° |
| 2026-05-06 00:47 | 50.89260 | -113.22305 | 17089 ft | 265 kts | 112° |
| 2026-05-06 00:47 | 50.88224 | -113.19878 | 17088 ft | 266 kts | 112° |
| 2026-05-06 00:47 | 50.87182 | -113.17456 | 17087 ft | 266 kts | 112° |
| 2026-05-06 00:47 | 50.86139 | -113.15037 | 17104 ft | 266 kts | 113° |
| 2026-05-06 00:48 | 50.85095 | -113.12615 | 17083 ft | 266 kts | 113° |
| 2026-05-06 00:48 | 50.84050 | -113.10194 | 17079 ft | 266 kts | 113° |
| 2026-05-06 00:48 | 50.83006 | -113.07771 | 17076 ft | 266 kts | 113° |
| 2026-05-06 00:48 | 50.81964 | -113.05356 | 17077 ft | 266 kts | 113° |
| 2026-05-06 00:49 | 50.80935 | -113.02978 | 17076 ft | 265 kts | 113° |
| 2026-05-06 00:49 | 50.79895 | -113.00570 | 17083 ft | 265 kts | 113° |
| 2026-05-06 00:49 | 50.78857 | -112.98172 | 17089 ft | 264 kts | 113° |
| 2026-05-06 00:49 | 50.77815 | -112.95772 | 17095 ft | 265 kts | 113° |
| 2026-05-06 00:50 | 50.76769 | -112.93363 | 17092 ft | 265 kts | 113° |
| 2026-05-06 00:50 | 50.75727 | -112.90963 | 17091 ft | 265 kts | 113° |
| 2026-05-06 00:50 | 50.74681 | -112.88557 | 17091 ft | 265 kts | 114° |
| 2026-05-06 00:50 | 50.73988 | -112.86965 | 17092 ft | 265 kts | 114° |
| 2026-05-06 00:51 | 50.72600 | -112.83776 | 17089 ft | 266 kts | 114° |
| 2026-05-06 00:51 | 50.71552 | -112.81374 | 17086 ft | 265 kts | 114° |
| 2026-05-06 00:51 | 50.70506 | -112.78975 | 17087 ft | 265 kts | 114° |
| 2026-05-06 00:51 | 50.69458 | -112.76576 | 17084 ft | 266 kts | 114° |
| 2026-05-06 00:52 | 50.68750 | -112.74957 | 17083 ft | 265 kts | 114° |
| 2026-05-06 00:52 | 50.67714 | -112.72588 | 17083 ft | 265 kts | 114° |
| 2026-05-06 00:52 | 50.66666 | -112.70193 | 17083 ft | 265 kts | 114° |
| 2026-05-06 00:52 | 50.65616 | -112.67802 | 17084 ft | 265 kts | 115° |
| 2026-05-06 00:53 | 50.64561 | -112.65422 | 17089 ft | 265 kts | 114° |
| 2026-05-06 00:53 | 50.63520 | -112.63026 | 17089 ft | 265 kts | 114° |
| 2026-05-06 00:53 | 50.62474 | -112.60632 | 17086 ft | 265 kts | 114° |
| 2026-05-06 00:53 | 50.61422 | -112.58243 | 17087 ft | 265 kts | 114° |
| 2026-05-06 00:54 | 50.60368 | -112.55855 | 17084 ft | 266 kts | 114° |
| 2026-05-06 00:54 | 50.59315 | -112.53463 | 17084 ft | 266 kts | 114° |
| 2026-05-06 00:54 | 50.58273 | -112.51098 | 17084 ft | 266 kts | 114° |
| 2026-05-06 00:54 | 50.57218 | -112.48710 | 17092 ft | 265 kts | 114° |
| 2026-05-06 00:55 | 50.56163 | -112.46322 | 17095 ft | 266 kts | 115° |
| 2026-05-06 00:55 | 50.55108 | -112.43937 | 17090 ft | 265 kts | 115° |
| 2026-05-06 00:55 | 50.54056 | -112.41561 | 17090 ft | 264 kts | 115° |
| 2026-05-06 00:55 | 50.53006 | -112.39190 | 17089 ft | 264 kts | 115° |
| 2026-05-06 00:56 | 50.51971 | -112.36856 | 17091 ft | 263 kts | 115° |
| 2026-05-06 00:56 | 50.50920 | -112.34485 | 17114 ft | 264 kts | 116° |
| 2026-05-06 00:56 | 50.49872 | -112.32128 | 17091 ft | 262 kts | 117° |
| 2026-05-06 00:56 | 50.48831 | -112.29791 | 17092 ft | 260 kts | 117° |
| 2026-05-06 00:57 | 50.47795 | -112.27462 | 17088 ft | 259 kts | 117° |
| 2026-05-06 00:57 | 50.46764 | -112.25145 | 17087 ft | 258 kts | 117° |
| 2026-05-06 00:57 | 50.45734 | -112.22833 | 17085 ft | 257 kts | 117° |
| 2026-05-06 00:57 | 50.44718 | -112.20554 | 17084 ft | 257 kts | 117° |
| 2026-05-06 00:58 | 50.43692 | -112.18257 | 17088 ft | 257 kts | 117° |
| 2026-05-06 00:58 | 50.42665 | -112.15959 | 17090 ft | 257 kts | 117° |
| 2026-05-06 00:58 | 50.41637 | -112.13662 | 17090 ft | 257 kts | 117° |
| 2026-05-06 00:58 | 50.40608 | -112.11364 | 17090 ft | 257 kts | 117° |
| 2026-05-06 00:59 | 50.39580 | -112.09069 | 17087 ft | 257 kts | 117° |
| 2026-05-06 00:59 | 50.38554 | -112.06781 | 17097 ft | 256 kts | 118° |
| 2026-05-06 00:59 | 50.37540 | -112.04525 | 17097 ft | 256 kts | 118° |
| 2026-05-06 00:59 | 50.36516 | -112.02244 | 17097 ft | 255 kts | 118° |
| 2026-05-06 01:00 | 50.35495 | -111.99973 | 17096 ft | 255 kts | 118° |
| 2026-05-06 01:00 | 50.34473 | -111.97702 | 17095 ft | 255 kts | 118° |
| 2026-05-06 01:00 | 50.33450 | -111.95430 | 17094 ft | 255 kts | 118° |
| 2026-05-06 01:00 | 50.32424 | -111.93157 | 17094 ft | 255 kts | 118° |
| 2026-05-06 01:01 | 50.31413 | -111.90915 | 17094 ft | 255 kts | 118° |
| 2026-05-06 01:01 | 50.30390 | -111.88649 | 17092 ft | 255 kts | 118° |
| 2026-05-06 01:01 | 50.29356 | -111.86355 | 16880 ft | 262 kts | 118° |
| 2026-05-06 01:01 | 50.28287 | -111.83982 | 16555 ft | 269 kts | 119° |
| 2026-05-06 01:02 | 50.27198 | -111.81580 | 16199 ft | 271 kts | 119° |
| 2026-05-06 01:02 | 50.26104 | -111.79170 | 15841 ft | 272 kts | 120° |
| 2026-05-06 01:02 | 50.25023 | -111.76789 | 15484 ft | 272 kts | 120° |
| 2026-05-06 01:02 | 50.23925 | -111.74370 | 15123 ft | 272 kts | 120° |
| 2026-05-06 01:03 | 50.22829 | -111.71958 | 14764 ft | 271 kts | 121° |
| 2026-05-06 01:03 | 50.21737 | -111.69557 | 14407 ft | 271 kts | 121° |
| 2026-05-06 01:03 | 50.20645 | -111.67159 | 14045 ft | 270 kts | 121° |
| 2026-05-06 01:03 | 50.19570 | -111.64802 | 13665 ft | 268 kts | 121° |
| 2026-05-06 01:04 | 50.18493 | -111.62442 | 13308 ft | 266 kts | 121° |
| 2026-05-06 01:04 | 50.17421 | -111.60093 | 12957 ft | 264 kts | 121° |
| 2026-05-06 01:04 | 50.16357 | -111.57763 | 12615 ft | 263 kts | 121° |
| 2026-05-06 01:04 | 50.15297 | -111.55445 | 12277 ft | 262 kts | 122° |
| 2026-05-06 01:05 | 50.14243 | -111.53144 | 11925 ft | 258 kts | 122° |
| 2026-05-06 01:05 | 50.13207 | -111.50883 | 11579 ft | 253 kts | 122° |
| 2026-05-06 01:05 | 50.12204 | -111.48694 | 11246 ft | 250 kts | 122° |
| 2026-05-06 01:05 | 50.11198 | -111.46503 | 10923 ft | 247 kts | 122° |
| 2026-05-06 01:06 | 50.10203 | -111.44336 | 10598 ft | 245 kts | 122° |
| 2026-05-06 01:06 | 50.09214 | -111.42182 | 10278 ft | 243 kts | 122° |
| 2026-05-06 01:06 | 50.08231 | -111.40045 | 9943 ft | 242 kts | 122° |
| 2026-05-06 01:06 | 50.07250 | -111.37916 | 9612 ft | 240 kts | 122° |
| 2026-05-06 01:07 | 50.06282 | -111.35813 | 9294 ft | 238 kts | 122° |
| 2026-05-06 01:07 | 50.05323 | -111.33735 | 8983 ft | 236 kts | 122° |
| 2026-05-06 01:07 | 50.04370 | -111.31670 | 8671 ft | 234 kts | 122° |
| 2026-05-06 01:07 | 50.03434 | -111.29644 | 8366 ft | 232 kts | 122° |
| 2026-05-06 01:08 | 50.02494 | -111.27607 | 8055 ft | 231 kts | 122° |
| 2026-05-06 01:08 | 50.01556 | -111.25581 | 7749 ft | 230 kts | 122° |
| 2026-05-06 01:08 | 50.00626 | -111.23572 | 7446 ft | 229 kts | 122° |
| 2026-05-06 01:08 | 49.99698 | -111.21570 | 7141 ft | 228 kts | 122° |
| 2026-05-06 01:09 | 49.98773 | -111.19573 | 6837 ft | 227 kts | 122° |
| 2026-05-06 01:09 | 49.97850 | -111.17584 | 6527 ft | 226 kts | 122° |
| 2026-05-06 01:09 | 49.96944 | -111.15633 | 6220 ft | 224 kts | 122° |
| 2026-05-06 01:09 | 49.96034 | -111.13674 | 5919 ft | 222 kts | 122° |
| 2026-05-06 01:10 | 49.95135 | -111.11739 | 5620 ft | 221 kts | 122° |
| 2026-05-06 01:10 | 49.94233 | -111.09802 | 5331 ft | 220 kts | 122° |
| 2026-05-06 01:10 | 49.93348 | -111.07903 | 5097 ft | 216 kts | 122° |
| 2026-05-06 01:10 | 49.92487 | -111.06061 | 5044 ft | 206 kts | 122° |
| 2026-05-06 01:11 | 49.91688 | -111.04264 | 5005 ft | 198 kts | 112° |
| 2026-05-06 01:11 | 49.91130 | -111.02337 | 4891 ft | 195 kts | 109° |
| 2026-05-06 01:11 | 49.90570 | -111.00415 | 4781 ft | 195 kts | 110° |
| 2026-05-06 01:11 | 49.90004 | -110.98494 | 4672 ft | 194 kts | 111° |
| 2026-05-06 01:12 | 49.89446 | -110.96601 | 4612 ft | 191 kts | 111° |
| 2026-05-06 01:12 | 49.88925 | -110.94760 | 4592 ft | 185 kts | 103° |
| 2026-05-06 01:12 | 49.88880 | -110.92854 | 4577 ft | 175 kts | 73° |
| 2026-05-06 01:12 | 49.89385 | -110.91195 | 4579 ft | 168 kts | 46° |
| 2026-05-06 01:13 | 49.90207 | -110.89918 | 4537 ft | 168 kts | 41° |
| 2026-05-06 01:13 | 49.91061 | -110.88618 | 4415 ft | 174 kts | 42° |
| 2026-05-06 01:13 | 49.91934 | -110.87286 | 4290 ft | 177 kts | 42° |
| 2026-05-06 01:13 | 49.92808 | -110.85954 | 4112 ft | 179 kts | 41° |
| 2026-05-06 01:14 | 49.94566 | -110.83269 | 4031 ft | 173 kts | 41° |
| 2026-05-06 01:14 | 49.95418 | -110.81969 | 4001 ft | 171 kts | 41° |
| 2026-05-06 01:14 | 49.96262 | -110.80680 | 3994 ft | 169 kts | 41° |
| 2026-05-06 01:15 | 49.97087 | -110.79419 | 4013 ft | 162 kts | 41° |
| 2026-05-06 01:15 | 49.97887 | -110.78198 | 3884 ft | 162 kts | 42° |
| 2026-05-06 01:15 | 49.98671 | -110.76998 | 3704 ft | 152 kts | 42° |
| 2026-05-06 01:15 | 49.99365 | -110.75936 | 3529 ft | 126 kts | 41° |
| 2026-05-06 01:16 | 49.99982 | -110.75030 | 3038 ft | 121 kts | 42° |
| 2026-05-06 01:16 | 50.00578 | -110.74104 | 2713 ft | 120 kts | 43° |
| 2026-05-06 01:16 | 50.01144 | -110.73219 | 2471 ft | 108 kts | 40° |
| 2026-05-06 01:16 | 50.01633 | -110.72457 | 2357 ft | 86 kts | 41° |
| 2026-05-06 01:17 | 50.01939 | -110.72034 | 2354 ft | 21 kts | 34° |
| 2026-05-06 01:17 | 50.01971 | -110.72015 | 2355 ft | 0 kts | 285° |
| 2026-05-06 01:17 | 50.01981 | -110.72025 | 2356 ft | 7 kts | 334° |
| 2026-05-06 01:17 | 50.02049 | -110.72111 | 2356 ft | 14 kts | 314° |
| 2026-05-06 01:18 | 50.02121 | -110.72226 | 2356 ft | 5 kts | 340° |
| 2026-05-06 01:18 | 50.02163 | -110.72201 | 2356 ft | 0 kts | 44° |